Terminal Aerodrome Forecast
Issued by NWS Sterling, VA

Home | Current Version | Previous Version | Text Only | Print | Product List | Glossary On
Versions: 1 2 3 4 5 6 7 8 9 10 11 12 13 14 15 16 17 18 19 20 21 22
000
FTUS41 KLWX 250500
TAFBWI
TAF
KBWI 250540Z 2506/2612 VRB03KT P6SM SCT200
     FM251300 11008KT P6SM BKN200
     FM251800 14014G22KT 5SM -SHRA OVC050
     FM252100 15014G22KT 3SM SHRA OVC025
     FM260000 15010KT 2SM -SHRA BR OVC008
     FM260600 29018G30KT P6SM SCT250=

USA.gov is the U.S. government's official web portal to all federal, state and local government web resources and services.